Batumi International Airport
UGSB : rendu visible

Aérodrome :











RETROUVEZ-NOUS SUR...

 
LOGIN :

S'inscrire | Disclaimer

   EN    FR    IT 

 









Légende :    VFR   VFR Marginal   IFR   IFR Intensif   IFR Très Intensif
Visi : 
Plafond : 
>= 8 km
>= 3000ft
5 à 8 km
1000 à 3000 ft
1500m à 5 km
500 à 1000 ft
800 à 1500m
200 à 500 ft
< 800m
< 200 ft
Symboles :   Orages  Brouillard  Fortes neiges  Fortes précipitations  Vent > 20 kt







- Altitude de l'aérodrome : 105 ft
- Code IATA : BUS


UGSB - Batumi International

DERNIER METAR :
  • 271630Z 23004KT 0800 FG NSC 08/08 Q1020 R13/CLRD70 NOSIG

METARs EXPIRÉS :
  • 271600Z 23003KT 1500 BR NSC 08/08 Q1020 R13/CLRD70 NOSIG
  • 271530Z 20004KT CAVOK 08/07 Q1020 R13/CLRD70 NOSIG
  • 271500Z 16003KT CAVOK 09/07 Q1020 R13/CLRD70 NOSIG
  • 271430Z 21004KT CAVOK 10/08 Q1020 R13/CLRD70 NOSIG
  • 271400Z 21003KT CAVOK 11/08 Q1020 R13/CLRD70 NOSIG

TAF AMD TAF UGSB
Valide du 27 à 16h jusqu'au 28 à 12h UTC


271555Z 2716/2812 25007KT 4000 BR SCT008 BKN020 TX14/2811Z TN07/2716Z
TEMPO 2716/2720 0800 FG VV003
FIR UGGG / Asie



MET'MAP, la Météo Aéronautique d'un coup d'oeil ! - Copyright ORBIFLY Décembre 2007 - Disclaimer

ORBIFLY MET'MAP TEAM :

Programmation & Développement : Alexandra Zaïnal
Conception & Développement : Baudouin d'Aumeries
Co-Programmation & Développement : Marc-Olivier Méhu
Soutien technique & logistique : Manuel Goepfert

Contact : metmap@orbifly.com




SOURCES & CREDITS :

   NOAA       Earth
Advisory